Time;durP1;ratioP1;P1;durP2;ratioP2;P2;SDS_P1;SDS_P2;PMS_P1;PMS_P2;Temp;Humidity;BMP_temperature;BMP_pressure;BME280_temperature;BME280_humidity;BME280_pressure;Samples;Min_cycle;Max_cycle;Signal;HPM_P1;HPM_P2
2021/05/16 00:02:08;;;;;;;21.88;9.20;;;;;;;10.13;85.29;100228.69;5018188;28;20199;-78
2021/05/16 00:04:35;;;;;;;29.63;10.02;;;;;;;10.16;85.18;100219.69;5020522;28;20062;-77
2021/05/16 00:07:03;;;;;;;23.98;8.75;;;;;;;10.13;85.03;100217.13;5017662;28;20061;-77
2021/05/16 00:09:32;;;;;;;29.27;10.70;;;;;;;10.13;84.57;100214.47;5035989;28;20065;-78
2021/05/16 00:12:00;;;;;;;26.08;10.13;;;;;;;10.04;85.07;100219.22;5020304;28;20109;-78
2021/05/16 00:14:28;;;;;;;26.48;10.38;;;;;;;10.05;84.69;100215.66;5017631;28;20062;-77
2021/05/16 00:16:56;;;;;;;22.85;10.65;;;;;;;10.06;84.94;100214.72;5017806;28;20084;-78
2021/05/16 00:19:23;;;;;;;23.90;9.55;;;;;;;10.01;85.45;100222.06;5022131;28;20061;-77
2021/05/16 00:21:50;;;;;;;23.15;8.95;;;;;;;10.02;85.68;100225.56;5021833;28;20061;-77
2021/05/16 00:24:18;;;;;;;21.63;8.63;;;;;;;9.94;85.31;100225.84;5019414;28;20065;-77
2021/05/16 00:26:46;;;;;;;22.55;9.25;;;;;;;9.93;85.67;100225.91;5016849;28;20072;-77
2021/05/16 00:29:13;;;;;;;22.52;9.32;;;;;;;9.98;86.01;100227.50;5020411;28;20061;-77
2021/05/16 00:31:41;;;;;;;23.10;10.07;;;;;;;9.99;85.59;100226.53;5020431;28;20057;-77
2021/05/16 00:34:08;;;;;;;27.65;12.32;;;;;;;9.96;85.93;100226.69;5019459;28;20068;-77
2021/05/16 00:36:35;;;;;;;31.73;12.90;;;;;;;9.97;85.96;100227.56;5017398;28;20054;-76
2021/05/16 00:39:03;;;;;;;28.40;11.20;;;;;;;9.96;85.96;100224.03;5023741;28;20053;-76
2021/05/16 00:41:31;;;;;;;34.17;12.98;;;;;;;9.98;86.09;100221.31;5018462;28;20057;-77
2021/05/16 00:43:59;;;;;;;25.27;10.77;;;;;;;10.00;85.84;100220.31;5020212;28;20072;-77
2021/05/16 00:46:27;;;;;;;30.27;10.27;;;;;;;10.01;86.19;100223.81;5018532;28;20166;-77
2021/05/16 00:48:54;;;;;;;29.52;9.90;;;;;;;10.01;86.11;100213.16;5016554;28;20076;-77
2021/05/16 00:51:21;;;;;;;29.67;10.10;;;;;;;9.98;86.03;100214.16;5014364;28;20060;-78
2021/05/16 00:53:49;;;;;;;20.27;8.65;;;;;;;10.00;85.77;100212.31;5019784;28;20064;-77
2021/05/16 00:56:16;;;;;;;25.13;8.07;;;;;;;10.02;85.07;100215.78;5015745;28;20626;-77
2021/05/16 00:58:43;;;;;;;22.10;8.00;;;;;;;10.03;84.96;100217.53;5020879;28;20064;-78
2021/05/16 01:01:14;;;;;;;24.45;7.13;;;;;;;10.02;84.35;100217.56;5015784;28;20297;-77
2021/05/16 01:03:41;;;;;;;21.70;7.68;;;;;;;9.99;84.31;100212.38;5017371;28;20066;-77
2021/05/16 01:06:09;;;;;;;28.73;7.82;;;;;;;9.97;84.18;100208.91;5018200;28;20058;-78
2021/05/16 01:08:36;;;;;;;31.88;7.88;;;;;;;9.95;84.43;100213.44;5016235;28;20707;-78
2021/05/16 01:11:04;;;;;;;23.85;7.80;;;;;;;9.95;84.96;100213.44;5023517;28;20148;-77
2021/05/16 01:13:35;;;;;;;22.83;7.80;;;;;;;9.93;84.77;100213.47;5013453;28;20064;-77
2021/05/16 01:16:02;;;;;;;26.50;7.80;;;;;;;9.96;84.40;100209.81;5019609;28;20062;-77
2021/05/16 01:18:30;;;;;;;26.58;7.63;;;;;;;9.94;84.84;100215.19;5013724;28;20061;-77
2021/05/16 01:20:57;;;;;;;32.45;8.25;;;;;;;9.93;84.99;100215.25;5018133;28;20571;-77
2021/05/16 01:23:30;;;;;;;32.35;7.75;;;;;;;9.94;85.43;100215.19;5019832;28;20057;-78
2021/05/16 01:25:57;;;;;;;29.65;8.77;;;;;;;9.93;85.81;100204.59;5016078;28;20065;-77
2021/05/16 01:28:24;;;;;;;30.95;8.25;;;;;;;9.93;86.24;100215.25;5016374;28;20623;-77
2021/05/16 01:30:52;;;;;;;28.33;8.07;;;;;;;9.94;85.87;100209.00;5018694;28;20076;-78
2021/05/16 01:33:21;;;;;;;32.40;9.05;;;;;;;9.89;86.80;100207.41;5017624;28;20070;-78
2021/05/16 01:35:48;;;;;;;38.03;11.82;;;;;;;9.91;86.99;100197.56;5017501;28;20060;-78
2021/05/16 01:38:15;;;;;;;39.28;10.65;;;;;;;9.96;87.75;100204.47;5014222;28;20060;-77
2021/05/16 01:40:44;;;;;;;41.83;13.38;;;;;;;9.96;88.21;100208.03;5021888;28;20069;-73
2021/05/16 01:43:12;;;;;;;39.40;13.75;;;;;;;9.94;88.70;100206.34;5012346;28;20050;-71
2021/05/16 01:45:40;;;;;;;42.00;16.02;;;;;;;9.93;89.30;100209.94;5022893;28;21161;-71
2021/05/16 01:48:08;;;;;;;47.47;15.13;;;;;;;9.91;90.15;100212.69;5017342;28;20092;-70
2021/05/16 01:50:37;;;;;;;60.63;16.13;;;;;;;9.85;90.22;100208.44;5014913;28;20111;-71
2021/05/16 01:53:06;;;;;;;62.53;17.35;;;;;;;9.87;90.38;100208.38;5014379;28;20061;-71
2021/05/16 01:55:34;;;;;;;49.80;17.42;;;;;;;9.92;90.52;100203.75;5014204;28;20057;-72
2021/05/16 01:58:04;;;;;;;43.65;15.75;;;;;;;9.89;90.04;100206.50;5020769;28;20068;-72
2021/05/16 02:00:33;;;;;;;50.60;18.35;;;;;;;9.83;89.76;100204.13;5014174;28;20067;-71
2021/05/16 02:03:01;;;;;;;54.40;18.15;;;;;;;9.83;89.92;100210.28;5020907;28;20507;-72
2021/05/16 02:05:30;;;;;;;62.50;19.05;;;;;;;9.82;89.63;100211.22;5013663;28;20062;-71
2021/05/16 02:07:58;;;;;;;55.47;19.33;;;;;;;9.87;90.09;100209.25;5018518;28;20072;-72
2021/05/16 02:10:26;;;;;;;53.90;18.40;;;;;;;9.81;89.83;100206.84;5011671;28;20061;-71
2021/05/16 02:12:54;;;;;;;58.05;19.20;;;;;;;9.84;89.36;100205.81;5017911;28;20061;-71
2021/05/16 02:15:22;;;;;;;55.47;19.83;;;;;;;9.78;89.69;100200.75;5014967;28;20061;-72
2021/05/16 02:17:53;;;;;;;52.55;18.45;;;;;;;9.80;89.65;100209.56;5017747;28;20053;-71
2021/05/16 02:20:21;;;;;;;53.60;18.85;;;;;;;9.78;89.74;100196.28;5016456;28;20483;-71
2021/05/16 02:22:48;;;;;;;56.83;19.60;;;;;;;9.78;89.74;100209.59;5016058;28;20069;-71
2021/05/16 02:25:16;;;;;;;63.42;19.15;;;;;;;9.75;89.76;100204.41;5016339;28;20392;-72
2021/05/16 02:27:43;;;;;;;57.75;19.13;;;;;;;9.75;89.58;100201.72;5019604;28;20314;-72
2021/05/16 02:30:12;;;;;;;54.10;17.63;;;;;;;9.70;89.60;100203.69;5016327;28;20065;-71
2021/05/16 02:32:40;;;;;;;47.70;17.42;;;;;;;9.70;90.20;100211.69;5018310;28;20440;-72
2021/05/16 02:35:11;;;;;;;48.70;16.92;;;;;;;9.69;89.67;100209.97;5017348;28;20452;-72
2021/05/16 02:37:38;;;;;;;46.53;16.75;;;;;;;9.67;89.92;100203.81;5017684;28;20080;-73
2021/05/16 02:40:07;;;;;;;48.20;16.17;;;;;;;9.68;90.08;100205.56;5022193;28;20059;-72
2021/05/16 02:42:34;;;;;;;38.67;14.30;;;;;;;9.62;89.56;100198.69;5019165;28;20065;-73
2021/05/16 02:45:03;;;;;;;41.60;15.20;;;;;;;9.61;89.44;100204.94;5021820;28;20182;-72
2021/05/16 02:47:30;;;;;;;50.13;16.40;;;;;;;9.54;89.83;100203.44;5021094;28;20076;-72
2021/05/16 02:49:58;;;;;;;38.75;14.00;;;;;;;9.54;89.69;100211.41;5021018;28;20497;-72
2021/05/16 02:52:25;;;;;;;41.17;13.70;;;;;;;9.56;89.41;100209.56;5019136;28;20061;-72
2021/05/16 02:54:52;;;;;;;38.00;12.43;;;;;;;9.55;88.80;100210.47;5024277;28;20061;-72
2021/05/16 02:57:21;;;;;;;39.35;12.57;;;;;;;9.55;88.43;100202.50;5018889;28;20071;-72
2021/05/16 02:59:48;;;;;;;45.80;12.18;;;;;;;9.53;88.90;100207.00;5022535;28;20118;-72
2021/05/16 03:02:16;;;;;;;32.97;11.40;;;;;;;9.51;89.10;100212.38;5019477;28;20327;-72
2021/05/16 03:04:44;;;;;;;35.03;12.55;;;;;;;9.53;88.63;100212.34;5023340;28;20401;-72
2021/05/16 03:07:12;;;;;;;38.92;12.50;;;;;;;9.54;88.52;100206.09;5019214;28;20057;-72
2021/05/16 03:09:40;;;;;;;35.75;11.07;;;;;;;9.51;89.01;100203.53;5020539;28;20069;-72
2021/05/16 03:12:08;;;;;;;28.80;10.88;;;;;;;9.47;89.06;100199.28;5017042;28;20053;-72
2021/05/16 03:14:36;;;;;;;28.33;8.63;;;;;;;9.46;89.01;100200.19;5020460;28;20054;-72
2021/05/16 03:17:03;;;;;;;29.02;10.07;;;;;;;9.45;88.92;100206.41;5021292;28;20073;-71
2021/05/16 03:19:32;;;;;;;24.02;8.00;;;;;;;9.41;88.89;100208.34;5016143;28;20092;-72
2021/05/16 03:22:00;;;;;;;24.92;7.82;;;;;;;9.40;88.89;100203.97;5022139;28;20084;-72
2021/05/16 03:24:29;;;;;;;23.33;7.88;;;;;;;9.41;89.16;100212.81;5020375;28;20101;-72
2021/05/16 03:26:57;;;;;;;23.20;7.95;;;;;;;9.35;89.09;100206.78;5022559;28;20215;-72
2021/05/16 03:29:24;;;;;;;25.67;8.18;;;;;;;9.42;89.36;100207.41;5020853;28;20061;-72
2021/05/16 03:31:51;;;;;;;26.65;8.15;;;;;;;9.37;89.25;100196.06;5020187;28;20064;-72
2021/05/16 03:34:19;;;;;;;24.25;8.25;;;;;;;9.37;89.18;100196.06;5018827;28;20065;-72
2021/05/16 03:36:46;;;;;;;26.08;8.05;;;;;;;9.36;89.56;100204.97;5019016;28;20065;-72
2021/05/16 03:39:13;;;;;;;27.27;9.30;;;;;;;9.38;89.40;100202.25;5019885;28;20072;-72
2021/05/16 03:41:41;;;;;;;26.33;9.27;;;;;;;9.34;90.10;100206.84;5017765;28;20069;-72
2021/05/16 03:44:08;;;;;;;21.88;7.97;;;;;;;9.34;90.03;100205.03;5015786;28;20058;-72
2021/05/16 03:46:36;;;;;;;26.42;8.48;;;;;;;9.30;91.03;100205.22;5023696;28;20069;-69
2021/05/16 03:49:04;;;;;;;22.58;8.00;;;;;;;9.27;91.54;100208.84;5016736;28;21002;-69
2021/05/16 03:51:31;;;;;;;28.08;9.48;;;;;;;9.24;92.06;100208.97;5020971;28;20049;-68
2021/05/16 03:53:58;;;;;;;19.95;8.98;;;;;;;9.12;92.26;100204.94;5017535;28;20147;-68
2021/05/16 03:56:26;;;;;;;17.83;7.03;;;;;;;9.18;92.31;100216.28;5021806;28;20192;-68
2021/05/16 03:58:54;;;;;;;17.10;6.57;;;;;;;9.20;91.79;100214.47;5020861;28;20061;-68
2021/05/16 04:01:21;;;;;;;14.63;6.22;;;;;;;9.18;91.78;100211.88;5018847;28;20057;-69
2021/05/16 04:03:48;;;;;;;19.27;7.22;;;;;;;9.15;91.95;100217.28;5023458;28;20497;-74
2021/05/16 04:06:16;;;;;;;23.25;8.38;;;;;;;9.16;92.38;100224.38;5017882;28;20061;-74
2021/05/16 04:08:43;;;;;;;22.83;8.13;;;;;;;9.18;92.37;100213.63;5020432;28;20061;-74
2021/05/16 04:11:10;;;;;;;24.83;8.40;;;;;;;9.21;92.23;100224.19;5016638;28;20145;-74
2021/05/16 04:13:38;;;;;;;31.77;11.15;;;;;;;9.22;92.40;100218.81;5020295;28;20064;-74
2021/05/16 04:16:06;;;;;;;38.38;11.45;;;;;;;9.28;91.97;100225.69;5017632;28;21506;-74
2021/05/16 04:18:33;;;;;;;38.38;11.60;;;;;;;9.34;91.89;100221.00;5020193;28;20116;-75
2021/05/16 04:21:01;;;;;;;38.67;12.15;;;;;;;9.40;92.03;100230.59;5032329;28;20368;-75
2021/05/16 04:23:29;;;;;;;32.42;8.77;;;;;;;9.38;91.25;100227.13;5016672;28;20061;-75
2021/05/16 04:25:56;;;;;;;30.27;8.95;;;;;;;9.36;91.37;100231.59;5016701;28;20057;-75
2021/05/16 04:28:23;;;;;;;34.88;9.23;;;;;;;9.38;91.73;100229.78;5020199;28;20061;-75
2021/05/16 04:30:51;;;;;;;26.83;7.30;;;;;;;9.42;91.20;100222.53;5019955;28;20080;-75
2021/05/16 04:33:19;;;;;;;32.25;8.50;;;;;;;9.37;90.82;100227.16;5018726;28;20065;-75
2021/05/16 04:35:46;;;;;;;34.90;7.97;;;;;;;9.33;90.90;100237.03;5017884;28;20069;-75
2021/05/16 04:38:13;;;;;;;33.70;7.20;;;;;;;9.29;90.35;100236.28;5019901;28;20061;-75
2021/05/16 04:40:40;;;;;;;30.67;7.57;;;;;;;9.27;90.63;100240.81;5019284;28;20065;-76
2021/05/16 04:43:08;;;;;;;32.13;6.40;;;;;;;9.23;91.09;100232.97;5019480;28;20065;-75
2021/05/16 04:45:36;;;;;;;30.05;7.10;;;;;;;9.22;90.88;100233.91;5021724;28;20111;-75
2021/05/16 04:48:03;;;;;;;24.80;7.20;;;;;;;9.19;91.00;100245.53;5018228;28;20108;-76
2021/05/16 04:50:32;;;;;;;30.27;6.45;;;;;;;9.14;90.77;100244.81;5018515;28;20411;-75
2021/05/16 04:52:59;;;;;;;27.33;6.63;;;;;;;9.10;90.76;100245.88;5014926;28;20061;-76
2021/05/16 04:55:27;;;;;;;31.00;6.40;;;;;;;9.12;90.66;100252.00;5020014;28;20061;-76
2021/05/16 04:57:54;;;;;;;26.45;6.68;;;;;;;9.18;90.62;100254.44;5017324;28;20076;-76
2021/05/16 05:00:23;;;;;;;28.52;6.03;;;;;;;9.19;90.80;100248.19;5019202;28;20064;-77
2021/05/16 05:02:50;;;;;;;34.72;7.80;;;;;;;9.32;90.32;100253.94;5018095;28;20507;-76
2021/05/16 05:05:18;;;;;;;30.58;6.68;;;;;;;9.44;90.55;100253.50;5020351;28;20456;-79
2021/05/16 05:07:46;;;;;;;28.30;6.93;;;;;;;9.54;89.99;100257.56;5014379;28;20065;-76
2021/05/16 05:10:14;;;;;;;28.92;7.20;;;;;;;9.58;90.37;100255.66;5019026;28;20072;-75
2021/05/16 05:12:41;;;;;;;31.55;7.82;;;;;;;9.65;89.99;100258.94;5018735;28;20057;-77
2021/05/16 05:15:09;;;;;;;35.88;7.15;;;;;;;9.62;90.28;100265.28;5016679;28;20104;-76
2021/05/16 05:17:39;;;;;;;39.47;9.13;;;;;;;9.75;90.45;100259.47;5016946;28;20135;-76
2021/05/16 05:20:08;;;;;;;27.58;8.48;;;;;;;9.87;90.04;100259.88;5017678;28;20235;-78
2021/05/16 05:22:35;;;;;;;35.92;8.32;;;;;;;9.90;89.55;100261.56;5017743;28;20087;-75
2021/05/16 05:25:05;;;;;;;30.85;8.77;;;;;;;9.96;89.99;100261.34;5018057;28;20068;-77
2021/05/16 05:27:32;;;;;;;31.77;8.85;;;;;;;9.94;89.56;100256.97;5018083;28;20057;-77
2021/05/16 05:30:00;;;;;;;37.13;8.20;;;;;;;10.03;89.37;100254.84;5021951;28;20063;-76
2021/05/16 05:32:27;;;;;;;33.85;8.48;;;;;;;10.03;88.84;100252.16;5018148;28;20057;-76
2021/05/16 05:34:54;;;;;;;35.33;8.10;;;;;;;10.08;89.08;100258.19;5017000;28;20061;-78
2021/05/16 05:37:22;;;;;;;35.83;8.32;;;;;;;10.20;88.72;100245.28;5020801;28;20547;-77
2021/05/16 05:39:49;;;;;;;39.30;9.25;;;;;;;10.79;87.61;100250.00;5017941;28;20057;-76
2021/05/16 05:42:17;;;;;;;38.92;9.60;;;;;;;10.93;86.81;100240.53;5019293;28;20068;-78
2021/05/16 05:44:45;;;;;;;36.28;8.18;;;;;;;11.31;84.61;100240.69;5016490;28;20275;-77
2021/05/16 05:47:12;;;;;;;32.17;8.95;;;;;;;11.34;83.96;100246.75;5019775;28;20081;-77
2021/05/16 05:49:39;;;;;;;34.22;9.52;;;;;;;11.18;83.39;100243.88;5032796;28;20437;-77
2021/05/16 05:52:06;;;;;;;29.33;7.38;;;;;;;11.78;83.93;100246.53;5021137;28;20058;-76
2021/05/16 05:54:34;;;;;;;27.55;7.05;;;;;;;11.68;83.51;100244.31;5014961;28;20431;-77
2021/05/16 05:57:02;;;;;;;25.80;8.32;;;;;;;11.28;82.77;100240.81;5020000;28;20553;-76
2021/05/16 05:59:31;;;;;;;26.60;8.13;;;;;;;11.74;83.22;100247.59;5016063;28;20066;-77
2021/05/16 06:01:59;;;;;;;32.53;7.60;;;;;;;11.51;82.74;100243.31;5020280;28;20053;-76
2021/05/16 06:04:27;;;;;;;29.27;7.75;;;;;;;11.35;82.73;100244.94;5015711;28;20065;-77
2021/05/16 06:06:55;;;;;;;34.67;8.32;;;;;;;11.21;83.15;100251.75;5018873;28;20061;-74
2021/05/16 06:09:22;;;;;;;28.08;7.18;;;;;;;11.18;82.83;100245.69;5019933;28;20061;-75
2021/05/16 06:11:50;;;;;;;34.58;8.60;;;;;;;11.12;82.94;100251.31;5019934;28;20069;-75
2021/05/16 06:14:17;;;;;;;28.48;7.05;;;;;;;10.93;83.14;100251.22;5020896;28;20062;-75
2021/05/16 06:16:45;;;;;;;28.40;7.75;;;;;;;10.86;82.65;100249.75;5020947;28;20131;-75
2021/05/16 06:19:13;;;;;;;28.00;7.68;;;;;;;10.89;83.19;100249.63;5025186;28;20061;-75
2021/05/16 06:21:40;;;;;;;30.52;7.38;;;;;;;10.91;83.54;100250.41;5019855;28;20061;-69
2021/05/16 06:24:09;;;;;;;33.70;8.52;;;;;;;10.98;83.56;100259.88;5023045;28;20058;-69
2021/05/16 06:26:38;;;;;;;38.67;10.38;;;;;;;10.94;84.33;100260.97;5020546;28;20065;-77
2021/05/16 06:29:06;;;;;;;34.97;11.20;;;;;;;10.88;83.65;100255.88;5021496;28;20076;-76
2021/05/16 06:31:34;;;;;;;44.40;11.48;;;;;;;10.94;84.90;100253.81;5020924;28;20077;-74
2021/05/16 06:34:03;;;;;;;41.97;11.25;;;;;;;11.12;83.39;100257.50;5022283;28;20061;-76
2021/05/16 06:36:31;;;;;;;35.05;11.07;;;;;;;11.13;83.15;100255.69;5022754;28;20065;-75
2021/05/16 06:38:58;;;;;;;28.75;10.50;;;;;;;11.12;83.11;100259.31;5023736;28;20057;-76
2021/05/16 06:41:27;;;;;;;35.28;11.55;;;;;;;11.10;83.16;100254.03;5021783;28;20057;-74
2021/05/16 06:43:54;;;;;;;39.17;10.70;;;;;;;11.13;82.66;100251.22;5023582;28;20065;-74
2021/05/16 06:46:23;;;;;;;35.03;12.52;;;;;;;11.16;84.41;100255.56;5019162;28;20135;-73
2021/05/16 06:48:50;;;;;;;36.83;11.13;;;;;;;11.05;82.90;100264.06;5023303;28;20065;-73
2021/05/16 06:51:18;;;;;;;36.42;11.25;;;;;;;10.80;84.47;100281.09;5018158;28;20065;-76
2021/05/16 06:53:51;;;;;;;23.38;8.68;;;;;;;10.53;85.04;100274.25;5024350;28;20413;-74
2021/05/16 06:56:18;;;;;;;25.40;6.95;;;;;;;9.76;83.69;100290.53;5017658;28;20066;-77
2021/05/16 06:58:45;;;;;;;23.20;7.32;;;;;;;9.27;85.60;100285.19;5022357;28;20504;-76
2021/05/16 07:01:12;;;;;;;28.13;9.48;;;;;;;9.33;86.77;100279.63;5021625;28;20406;-72
2021/05/16 07:03:41;;;;;;;31.30;10.27;;;;;;;9.46;87.89;100275.59;5022439;28;20062;-73
2021/05/16 07:06:09;;;;;;;34.83;11.70;;;;;;;9.60;88.74;100280.44;5020317;28;20080;-73
2021/05/16 07:08:37;;;;;;;40.55;12.75;;;;;;;9.84;89.10;100277.78;5020068;28;20079;-72
2021/05/16 07:11:04;;;;;;;37.05;12.85;;;;;;;9.93;88.27;100279.22;5022372;28;20163;-73
2021/05/16 07:13:32;;;;;;;37.08;12.30;;;;;;;9.93;88.30;100281.88;5016947;28;20061;-74
2021/05/16 07:15:59;;;;;;;32.35;11.32;;;;;;;10.00;88.71;100283.41;5021860;28;20069;-73
2021/05/16 07:18:30;;;;;;;35.40;11.27;;;;;;;10.06;88.93;100285.81;5017745;28;20066;-74
2021/05/16 07:20:57;;;;;;;37.20;10.88;;;;;;;10.13;89.57;100275.78;5021834;28;20507;-73
2021/05/16 07:23:25;;;;;;;35.47;11.70;;;;;;;10.26;88.87;100285.91;5018839;28;20152;-69
2021/05/16 07:25:53;;;;;;;42.08;13.00;;;;;;;10.21;89.11;100284.34;5034746;28;20926;-70
2021/05/16 07:28:21;;;;;;;45.08;14.68;;;;;;;10.32;89.38;100283.97;5017672;28;20068;-69
2021/05/16 07:30:48;;;;;;;32.00;12.27;;;;;;;10.58;88.74;100286.44;5019484;28;20093;-69
2021/05/16 07:33:16;;;;;;;38.90;14.40;;;;;;;10.86;85.98;100290.63;5018651;28;20065;-70
2021/05/16 07:35:43;;;;;;;41.25;14.02;;;;;;;10.88;85.92;100288.78;5018824;28;20061;-69
2021/05/16 07:38:10;;;;;;;40.53;13.43;;;;;;;11.00;85.86;100285.59;5018474;28;20061;-70
2021/05/16 07:40:38;;;;;;;39.78;14.77;;;;;;;10.88;84.99;100299.47;5021035;28;20080;-71
2021/05/16 07:43:07;;;;;;;41.50;14.07;;;;;;;10.73;87.01;100300.97;5018728;28;20065;-67
2021/05/16 07:45:35;;;;;;;32.97;12.43;;;;;;;10.56;86.67;100303.47;5020076;28;20053;-67
2021/05/16 07:48:02;;;;;;;25.60;8.63;;;;;;;10.34;85.42;100306.97;5018742;28;20064;-73
2021/05/16 07:50:31;;;;;;;25.42;8.13;;;;;;;10.21;85.49;100295.03;5018622;28;20062;-72
2021/05/16 07:52:58;;;;;;;28.88;9.52;;;;;;;10.19;87.09;100302.22;5018454;28;20060;-72
2021/05/16 07:55:25;;;;;;;28.10;9.32;;;;;;;10.24;88.00;100301.09;5018440;28;20253;-73
2021/05/16 07:57:52;;;;;;;24.05;9.70;;;;;;;10.18;88.21;100296.03;5019944;28;20061;-72
2021/05/16 08:00:21;;;;;;;25.85;9.90;;;;;;;10.13;87.89;100291.78;5017817;28;20061;-73
2021/05/16 08:02:48;;;;;;;30.17;10.88;;;;;;;10.18;87.93;100292.47;5020127;28;20473;-72
2021/05/16 08:05:16;;;;;;;34.58;10.52;;;;;;;10.36;88.46;100293.59;5019675;28;20057;-73
2021/05/16 08:07:44;;;;;;;35.35;12.27;;;;;;;10.32;87.86;100292.84;5018652;28;20053;-74
2021/05/16 08:10:11;;;;;;;32.35;11.98;;;;;;;10.42;86.80;100301.31;5016963;28;20448;-74
2021/05/16 08:12:39;;;;;;;29.00;9.77;;;;;;;10.42;87.34;100306.66;5020457;28;20061;-74
2021/05/16 08:15:08;;;;;;;27.75;9.40;;;;;;;10.30;87.07;100300.00;5016783;28;20200;-73
2021/05/16 08:17:36;;;;;;;26.67;9.95;;;;;;;10.44;88.33;100304.81;5018828;28;20057;-74
2021/05/16 08:20:05;;;;;;;34.88;10.85;;;;;;;10.45;87.85;100302.09;5018882;28;20519;-73
2021/05/16 08:22:32;;;;;;;32.28;10.90;;;;;;;10.64;88.05;100290.66;5019013;28;20053;-74
2021/05/16 08:25:00;;;;;;;28.52;9.65;;;;;;;10.78;87.39;100296.31;5017379;28;20065;-72
2021/05/16 08:27:28;;;;;;;44.22;11.55;;;;;;;11.65;84.71;100282.78;5018986;28;20505;-73
2021/05/16 08:29:55;;;;;;;39.30;11.60;;;;;;;11.82;85.95;100273.97;5017056;28;20766;-74
2021/05/16 08:32:22;;;;;;;31.15;10.48;;;;;;;11.64;84.29;100281.03;5018876;28;20061;-74
2021/05/16 08:34:51;;;;;;;35.45;11.60;;;;;;;11.82;82.72;100282.00;5016467;28;20053;-74
2021/05/16 08:37:18;;;;;;;39.22;11.20;;;;;;;11.78;82.09;100283.06;5014264;28;20073;-74
2021/05/16 08:39:46;;;;;;;30.10;10.65;;;;;;;11.96;82.73;100274.22;5016268;28;20049;-74
2021/05/16 08:42:13;;;;;;;31.40;9.57;;;;;;;11.75;82.52;100284.09;5016031;28;20049;-75
2021/05/16 08:44:40;;;;;;;28.33;10.02;;;;;;;11.52;82.61;100279.75;5016601;28;20065;-74
2021/05/16 08:47:08;;;;;;;26.75;9.50;;;;;;;11.47;83.91;100278.25;5016494;28;20068;-74
2021/05/16 08:49:36;;;;;;;27.30;10.32;;;;;;;11.52;84.25;100282.44;5030834;28;20372;-72
2021/05/16 08:52:05;;;;;;;29.42;9.25;;;;;;;11.45;83.70;100280.97;5016586;28;20062;-73
2021/05/16 08:54:32;;;;;;;26.50;9.05;;;;;;;11.53;83.29;100284.19;5017528;28;20069;-74
2021/05/16 08:57:00;;;;;;;27.23;9.13;;;;;;;11.66;83.56;100288.97;5018447;28;20123;-73
2021/05/16 08:59:28;;;;;;;29.27;8.75;;;;;;;11.56;82.77;100276.03;5021285;28;20379;-73
2021/05/16 09:01:56;;;;;;;31.23;10.88;;;;;;;12.43;80.53;100275.59;5015360;28;20061;-74
2021/05/16 09:04:28;;;;;;;33.85;9.07;;;;;;;12.85;80.42;100270.84;5022122;28;20156;-74
2021/05/16 09:06:57;;;;;;;27.13;10.48;;;;;;;12.96;81.88;100289.06;5015360;28;20736;-73
2021/05/16 09:09:32;;;;;;;26.85;7.07;;;;;;;12.08;80.77;100283.47;5016583;28;20516;-74
2021/05/16 09:12:01;;;;;;;9.13;3.38;;;;;;;11.57;78.04;100291.13;5014438;28;20065;-67
2021/05/16 09:14:40;;;;;;;14.05;4.03;;;;;;;11.17;78.05;100290.22;5015909;28;20072;-69
2021/05/16 09:17:25;;;;;;;14.88;4.65;;;;;;;11.07;80.57;100302.22;5017911;28;20376;-69
2021/05/16 09:19:53;;;;;;;15.07;4.30;;;;;;;11.25;81.03;100300.56;5018503;28;20062;-68
2021/05/16 09:22:40;;;;;;;14.93;5.38;;;;;;;11.29;82.61;100306.63;5016962;28;20065;-67
2021/05/16 09:25:15;;;;;;;16.08;4.78;;;;;;;11.00;82.15;100311.44;5018127;28;20072;-67
2021/05/16 09:27:44;;;;;;;18.05;5.13;;;;;;;10.50;81.72;100317.03;5017613;28;20057;-67
2021/05/16 09:30:33;;;;;;;20.63;5.88;;;;;;;10.49;83.36;100307.28;5019353;28;20064;-69
2021/05/16 09:33:03;;;;;;;28.55;7.25;;;;;;;10.57;83.81;100291.84;5014195;28;20095;-67
2021/05/16 09:35:33;;;;;;;19.70;6.95;;;;;;;10.94;83.23;100296.53;5017288;28;20680;-68
2021/05/16 09:38:07;;;;;;;25.90;8.45;;;;;;;11.73;83.04;100285.97;5013020;28;20096;-68
2021/05/16 09:40:39;;;;;;;29.70;8.75;;;;;;;11.80;82.37;100288.34;5019681;28;20097;-68
2021/05/16 09:43:08;;;;;;;24.73;8.85;;;;;;;11.86;82.72;100283.56;5014684;28;20069;-70
2021/05/16 09:45:54;;;;;;;30.77;9.18;;;;;;;11.88;83.39;100281.69;5017913;28;20124;-69
2021/05/16 09:48:31;;;;;;;23.10;8.23;;;;;;;12.01;83.29;100290.06;5012821;28;20191;-69
2021/05/16 09:51:21;;;;;;;26.90;8.38;;;;;;;12.13;83.07;100296.63;5019469;28;20069;-68
2021/05/16 09:54:00;;;;;;;24.80;9.00;;;;;;;12.29;81.62;100284.28;5017706;28;20061;-69
2021/05/16 09:56:30;;;;;;;24.90;7.88;;;;;;;12.51;80.67;100278.75;5019389;28;20103;-71
2021/05/16 09:58:59;;;;;;;30.23;7.57;;;;;;;12.52;80.80;100279.63;5016009;28;20091;-69
2021/05/16 10:01:28;;;;;;;25.17;7.70;;;;;;;12.43;79.69;100278.25;5017988;28;20107;-69
2021/05/16 10:03:57;;;;;;;22.55;8.00;;;;;;;12.50;80.43;100284.19;5016762;28;20061;-69
2021/05/16 10:06:26;;;;;;;26.48;6.65;;;;;;;12.42;79.57;100278.34;5020016;28;20053;-69
2021/05/16 10:08:54;;;;;;;25.00;6.55;;;;;;;12.37;79.63;100281.22;5014207;28;20057;-70
2021/05/16 10:11:22;;;;;;;21.10;6.93;;;;;;;12.25;80.08;100287.16;5013446;28;20376;-69
2021/05/16 10:14:03;;;;;;;25.15;6.97;;;;;;;12.35;80.11;100275.09;5017734;28;20448;-72
2021/05/16 10:16:37;;;;;;;27.92;7.60;;;;;;;12.40;80.13;100282.91;5017126;28;20069;-70
2021/05/16 10:19:04;;;;;;;;;;;;;;;12.69;80.60;100281.47;5019401;28;20073;-69
2021/05/16 10:21:32;;;;;;;19.48;6.40;;;;;;;12.67;78.98;100278.84;5012522;28;20355;-68
2021/05/16 10:24:11;;;;;;;23.88;7.50;;;;;;;12.55;77.41;100271.44;5018012;28;21054;-69
2021/05/16 10:26:38;;;;;;;26.02;7.55;;;;;;;12.49;77.58;100277.09;5014537;28;20053;-69
2021/05/16 10:29:09;;;;;;;24.63;8.15;;;;;;;12.35;77.66;100272.41;5016963;28;20069;-70
2021/05/16 10:31:53;;;;;;;32.85;8.40;;;;;;;12.32;76.30;100283.25;5014302;28;20061;-69
2021/05/16 10:34:43;;;;;;;32.42;8.27;;;;;;;12.50;79.09;100273.47;5017175;28;20067;-70
2021/05/16 10:37:32;;;;;;;26.17;7.80;;;;;;;12.57;78.50;100274.91;5013461;28;20153;-70
2021/05/16 10:40:00;;;;;;;23.10;8.07;;;;;;;12.36;78.51;100282.19;5017639;28;20065;-68
2021/05/16 10:42:36;;;;;;;24.70;8.85;;;;;;;12.40;79.00;100281.06;5018398;28;20077;-68
2021/05/16 10:45:13;;;;;;;20.20;7.53;;;;;;;12.33;79.27;100287.69;5018604;28;20072;-69
2021/05/16 10:48:04;;;;;;;26.73;7.68;;;;;;;12.30;77.91;100275.28;5019784;28;20328;-69
2021/05/16 10:50:54;;;;;;;24.38;8.20;;;;;;;12.34;78.80;100278.69;5017062;28;20453;-69
2021/05/16 10:53:36;;;;;;;23.88;6.88;;;;;;;12.44;78.15;100277.31;5014115;28;20441;-69
2021/05/16 10:56:21;;;;;;;26.25;8.93;;;;;;;12.48;77.98;100267.31;5019370;28;20061;-70
2021/05/16 10:58:55;;;;;;;25.73;7.28;;;;;;;12.57;78.84;100266.03;5022661;28;20057;-70
2021/05/16 11:01:34;;;;;;;20.65;7.07;;;;;;;12.73;77.88;100269.66;5023154;28;20065;-70
2021/05/16 11:04:03;;;;;;;23.50;6.72;;;;;;;13.05;77.75;100267.16;5024932;28;20116;-70
2021/05/16 11:06:56;;;;;;;25.55;6.10;;;;;;;13.08;75.46;100262.50;5023857;28;20076;-71
2021/05/16 11:09:34;;;;;;;19.63;5.43;;;;;;;13.48;76.65;100259.56;5020474;28;20076;-70
2021/05/16 11:12:04;;;;;;;19.65;5.82;;;;;;;13.72;76.67;100261.88;5022179;28;20143;-69
2021/05/16 11:14:35;;;;;;;21.00;5.28;;;;;;;13.39;77.50;100260.06;5022105;28;20553;-70
2021/05/16 11:17:05;;;;;;;19.52;6.35;;;;;;;13.30;75.51;100261.41;5018861;28;20057;-69
2021/05/16 11:19:34;;;;;;;20.45;5.78;;;;;;;13.51;74.69;100262.09;5019892;28;20066;-70
2021/05/16 11:22:13;;;;;;;16.27;5.22;;;;;;;13.28;73.37;100260.63;5020846;28;20054;-70
2021/05/16 11:24:45;;;;;;;25.05;5.03;;;;;;;13.55;72.69;100266.34;5017363;28;20062;-70
2021/05/16 11:27:27;;;;;;;18.27;5.25;;;;;;;13.50;72.18;100272.88;5018478;28;20081;-71
2021/05/16 11:30:06;;;;;;;15.77;4.68;;;;;;;13.18;72.52;100268.25;5018176;28;20100;-71